Time;durP1;ratioP1;P1;durP2;ratioP2;P2;SDS_P1;SDS_P2;PMS_P1;PMS_P2;Temp;Humidity;BMP_temperature;BMP_pressure;BME280_temperature;BME280_humidity;BME280_pressure;Samples;Min_cycle;Max_cycle;Signal;HPM_P1;HPM_P2
2021/12/05 00:19:09;;;;;;;12.70;7.90;;;;;;;2.10;88.58;98686.69;8834763;33;20147;-72
2021/12/05 00:24:16;;;;;;;26.15;12.25;;;;;;;2.37;87.74;98694.44;8839342;33;20280;-71
2021/12/05 00:29:27;;;;;;;28.63;14.88;;;;;;;2.38;87.51;98685.50;8838576;33;20182;-72
2021/12/05 00:56:46;;;;;;;22.05;9.68;;;;;;;2.47;86.31;98727.25;8837221;33;20698;-72
2021/12/05 01:07:34;;;;;;;37.20;17.23;;;;;;;2.61;85.84;98743.00;8809882;33;20565;-73
2021/12/05 01:12:49;;;;;;;31.95;17.05;;;;;;;2.51;85.71;98754.38;8811653;33;20229;-73
2021/12/05 01:18:02;;;;;;;39.92;19.80;;;;;;;2.76;85.46;98751.59;8811584;33;20189;-72
2021/12/05 01:23:22;;;;;;;47.25;21.20;;;;;;;2.74;85.42;98761.50;8811239;33;20182;-72
2021/12/05 01:28:35;;;;;;;41.67;19.17;;;;;;;2.68;85.20;98769.91;8836935;33;20731;-73
2021/12/05 01:33:50;;;;;;;38.90;18.88;;;;;;;2.77;85.07;98771.00;8811031;33;20416;-73
2021/12/05 01:39:07;;;;;;;34.17;18.27;;;;;;;2.67;85.10;98778.81;8811053;33;20461;-73
2021/12/05 02:11:39;;;;;;;24.00;11.20;;;;;;;2.52;84.22;98770.13;8836598;33;20169;-72
2021/12/05 02:33:04;;;;;;;22.08;10.20;;;;;;;2.40;84.93;98766.59;8833520;33;20193;-72
2021/12/05 02:43:36;;;;;;;18.90;8.10;;;;;;;2.53;83.67;98774.53;8809239;33;20544;-73
2021/12/05 02:48:40;;;;;;;16.92;7.80;;;;;;;2.51;83.60;98773.75;8835235;33;21011;-72
2021/12/05 02:53:50;;;;;;;16.38;7.45;;;;;;;2.49;83.14;98777.47;8809188;33;20182;-72
2021/12/05 02:58:58;;;;;;;16.60;6.70;;;;;;;2.55;83.07;98769.09;8808885;33;20139;-73
2021/12/05 03:04:03;;;;;;;13.45;4.97;;;;;;;2.46;83.17;98767.94;8836208;33;20194;-72
2021/12/05 03:09:12;;;;;;;9.02;4.20;;;;;;;2.34;82.65;98772.34;8856378;33;20178;-73
2021/12/05 03:14:16;;;;;;;7.82;3.90;;;;;;;2.30;82.63;98783.25;8850156;33;20237;-73
2021/12/05 03:19:20;;;;;;;9.45;3.67;;;;;;;2.29;82.48;98790.38;8820413;33;20166;-72
2021/12/05 03:24:26;;;;;;;10.52;4.75;;;;;;;2.26;82.49;98795.91;8810452;33;20159;-72
2021/12/05 03:29:30;;;;;;;12.63;3.95;;;;;;;2.45;82.17;98786.63;8809223;33;20190;-72
2021/12/05 03:34:33;;;;;;;11.35;5.00;;;;;;;2.54;81.90;98791.28;8834035;33;20529;-72
2021/12/05 03:39:39;;;;;;;13.27;4.80;;;;;;;2.57;81.67;98791.06;8808404;33;20320;-73
2021/12/05 03:44:44;;;;;;;11.65;4.93;;;;;;;2.66;81.33;98792.19;8833775;33;20694;-73
2021/12/05 03:49:49;;;;;;;10.07;3.92;;;;;;;2.50;80.67;98805.69;8808006;33;20897;-73
2021/12/05 03:54:55;;;;;;;9.35;4.45;;;;;;;2.52;81.00;98814.34;8832504;33;20805;-73
2021/12/05 03:59:59;;;;;;;9.57;3.88;;;;;;;2.57;80.35;98823.69;8807672;33;20276;-72
2021/12/05 04:05:03;;;;;;;8.98;4.40;;;;;;;2.47;80.70;98812.06;8808524;33;20599;-73
2021/12/05 04:10:10;;;;;;;11.27;4.43;;;;;;;2.59;80.52;98810.34;8808212;33;20950;-73
2021/12/05 04:15:15;;;;;;;9.50;3.92;;;;;;;2.62;80.00;98823.38;8808783;33;20246;-72
2021/12/05 04:20:21;;;;;;;7.70;4.45;;;;;;;2.62;80.52;98815.41;8807287;33;20258;-72
2021/12/05 04:25:26;;;;;;;12.23;5.30;;;;;;;2.47;80.17;98825.31;8807714;33;20226;-72
2021/12/05 04:30:30;;;;;;;11.70;4.90;;;;;;;2.57;80.35;98831.66;8832264;33;20221;-72
2021/12/05 04:35:34;;;;;;;12.23;4.68;;;;;;;2.65;80.44;98840.88;8807356;33;20931;-73
2021/12/05 04:40:39;;;;;;;10.02;4.53;;;;;;;2.57;79.99;98844.06;8832404;33;22578;-72
2021/12/05 04:45:43;;;;;;;15.45;5.35;;;;;;;2.43;80.03;98847.69;8832269;33;20682;-73
2021/12/05 04:50:48;;;;;;;14.15;5.65;;;;;;;2.65;79.91;98851.47;8806833;33;20143;-73
2021/12/05 04:55:52;;;;;;;11.75;5.13;;;;;;;2.50;79.78;98864.00;8807143;33;20284;-72
2021/12/05 05:00:57;;;;;;;11.25;5.43;;;;;;;2.65;79.32;98862.91;8806810;33;20418;-72
2021/12/05 05:06:07;;;;;;;11.18;5.13;;;;;;;2.56;79.39;98863.59;8834250;33;20264;-72
2021/12/05 05:11:16;;;;;;;13.90;5.60;;;;;;;2.58;79.11;98856.38;8837551;33;20146;-73
2021/12/05 05:16:24;;;;;;;8.32;5.50;;;;;;;2.47;79.66;98864.19;8837245;33;20822;-72
2021/12/05 05:21:36;;;;;;;13.10;4.97;;;;;;;2.50;79.21;98874.59;8837093;33;20453;-73
2021/12/05 05:27:25;;;;;;;10.35;4.90;;;;;;;2.45;78.52;98866.13;8836439;33;20174;-72
2021/12/05 05:48:37;;;;;;;9.95;4.88;;;;;;;2.36;78.23;98904.75;8815102;33;20207;-72
2021/12/05 05:53:40;;;;;;;9.73;4.55;;;;;;;2.28;78.28;98897.31;8835877;33;20252;-72
2021/12/05 05:58:48;;;;;;;10.15;5.55;;;;;;;2.38;78.07;98908.94;8836815;33;20432;-73
2021/12/05 06:03:51;;;;;;;12.43;5.07;;;;;;;2.30;78.63;98902.50;8811404;33;20285;-72
2021/12/05 06:08:54;;;;;;;11.25;5.15;;;;;;;2.25;78.84;98894.91;8836660;33;20190;-70
2021/12/05 06:13:59;;;;;;;10.95;5.07;;;;;;;2.10;79.15;98904.75;8836540;33;20448;-71
2021/12/05 06:19:02;;;;;;;9.18;4.72;;;;;;;2.25;79.18;98916.09;8809644;33;21494;-73
2021/12/05 06:24:05;;;;;;;10.00;4.85;;;;;;;2.29;78.73;98919.38;8835858;33;20173;-73
2021/12/05 06:29:15;;;;;;;11.63;5.22;;;;;;;2.47;79.11;98923.38;8835096;33;20204;-70
2021/12/05 06:39:47;;;;;;;11.38;4.35;;;;;;;2.49;79.29;98937.34;8811088;33;20186;-71
2021/12/05 06:50:11;;;;;;;9.23;4.03;;;;;;;2.45;78.34;98946.50;8836320;33;20182;-71
2021/12/05 06:55:18;;;;;;;7.05;4.20;;;;;;;2.53;77.91;98951.25;8836520;33;20185;-71
2021/12/05 07:00:26;;;;;;;6.18;3.70;;;;;;;2.61;77.65;98960.38;8809917;33;20146;-72
2021/12/05 07:10:56;;;;;;;6.70;3.63;;;;;;;2.71;77.46;98973.81;8835581;33;20806;-71
2021/12/05 07:16:06;;;;;;;6.35;3.17;;;;;;;2.68;77.14;98984.66;8836185;33;20186;-72
2021/12/05 07:21:26;;;;;;;10.25;3.83;;;;;;;2.69;77.04;98985.50;8835743;33;20178;-72
2021/12/05 07:26:44;;;;;;;9.20;3.85;;;;;;;2.71;77.22;98989.72;8836174;33;21412;-71
2021/12/05 07:42:30;;;;;;;7.47;3.70;;;;;;;2.73;77.22;98998.44;8825104;33;20432;-72
2021/12/05 07:47:37;;;;;;;9.50;3.45;;;;;;;2.81;77.21;98997.91;8804939;33;20422;-72
2021/12/05 07:52:47;;;;;;;6.10;3.10;;;;;;;2.87;77.11;99004.56;8798231;33;21384;-72
2021/12/05 07:58:05;;;;;;;8.40;3.70;;;;;;;3.04;77.53;99012.16;8805945;33;20192;-72
2021/12/05 08:19:13;;;;;;;6.45;3.20;;;;;;;2.79;75.65;99053.69;8774243;33;20139;-72
2021/12/05 08:24:16;;;;;;;6.97;2.97;;;;;;;2.81;75.30;99057.09;8775399;33;20281;-72
2021/12/05 08:29:27;;;;;;;9.70;3.42;;;;;;;2.88;75.21;99064.59;8775625;33;20178;-71
2021/12/05 08:34:47;;;;;;;11.52;3.60;;;;;;;2.82;74.83;99065.88;8775055;33;21173;-72
2021/12/05 08:45:42;;;;;;;6.03;3.15;;;;;;;2.92;74.31;99076.72;8700280;33;20641;-72
2021/12/05 10:06:48;;;;;;;5.15;2.47;;;;;;;3.90;68.72;99190.03;8778700;33;20755;-72
2021/12/05 10:12:07;;;;;;;3.90;2.60;;;;;;;3.94;68.89;99188.84;8777917;33;21233;-72
2021/12/05 10:38:44;;;;;;;3.90;2.50;;;;;;;4.71;66.62;99215.06;8752186;33;20476;-72
2021/12/05 10:43:52;;;;;;;5.25;2.40;;;;;;;4.51;65.87;99216.56;8776994;33;20205;-73
2021/12/05 10:49:00;;;;;;;5.65;2.40;;;;;;;4.44;66.15;99215.31;8777538;33;20275;-72
2021/12/05 10:54:07;;;;;;;6.60;2.58;;;;;;;4.29;65.92;99211.16;8777217;33;20250;-72
2021/12/05 10:59:16;;;;;;;2.95;2.28;;;;;;;4.47;65.90;99214.25;8776757;33;20311;-72
2021/12/05 11:04:22;;;;;;;4.25;2.28;;;;;;;4.55;66.04;99215.41;8776672;33;20174;-72
2021/12/05 11:09:28;;;;;;;3.13;2.38;;;;;;;4.48;65.69;99218.63;8776929;33;20183;-72
2021/12/05 11:14:36;;;;;;;4.03;2.45;;;;;;;4.83;65.75;99223.97;8776306;33;20246;-72
2021/12/05 11:19:42;;;;;;;7.32;3.80;;;;;;;5.18;65.31;99228.41;8776290;33;20320;-72
2021/12/05 11:24:51;;;;;;;9.30;2.60;;;;;;;5.15;64.37;99239.31;8798648;33;20941;-72
2021/12/05 11:30:13;;;;;;;3.85;2.78;;;;;;;5.33;64.87;99242.38;8783268;33;20580;-72
2021/12/05 11:35:32;;;;;;;5.90;2.40;;;;;;;5.30;63.04;99248.78;8775989;33;20179;-73
2021/12/05 11:40:54;;;;;;;4.88;3.13;;;;;;;5.05;63.67;99253.34;8862365;32;20138;-72
2021/12/05 11:46:07;;;;;;;6.63;2.58;;;;;;;5.06;63.15;99254.19;8895676;32;20189;-73
2021/12/05 11:51:29;;;;;;;3.92;2.00;;;;;;;5.10;63.44;99250.34;8893288;32;20235;-73
2021/12/05 11:56:45;;;;;;;4.88;2.35;;;;;;;5.18;63.08;99249.72;8846708;32;20177;-72
2021/12/05 12:01:57;;;;;;;3.78;2.28;;;;;;;5.10;63.35;99252.13;8802990;33;20186;-73
2021/12/05 12:07:15;;;;;;;3.42;2.50;;;;;;;5.32;63.21;99253.97;8802904;33;20228;-72
2021/12/05 12:12:20;;;;;;;4.80;2.28;;;;;;;5.26;63.11;99257.97;8805869;33;20261;-72
2021/12/05 12:17:26;;;;;;;4.50;2.78;;;;;;;5.26;63.48;99253.50;8833379;33;20190;-72
2021/12/05 12:22:29;;;;;;;6.55;3.40;;;;;;;5.31;66.06;99263.78;8833737;33;21761;-73
2021/12/05 12:27:32;;;;;;;7.03;3.38;;;;;;;5.21;66.07;99263.66;8834331;33;21150;-73
2021/12/05 12:32:43;;;;;;;6.25;3.22;;;;;;;5.17;66.25;99259.53;8833754;33;21125;-73
2021/12/05 12:37:59;;;;;;;8.15;5.28;;;;;;;5.18;65.51;99265.69;8833932;33;20190;-73
2021/12/05 12:43:02;;;;;;;5.25;3.60;;;;;;;5.23;63.99;99264.38;8833800;33;20166;-73
2021/12/05 12:48:12;;;;;;;4.68;2.80;;;;;;;5.33;63.77;99263.69;8814967;33;20777;-72
2021/12/05 12:53:23;;;;;;;3.65;2.92;;;;;;;5.39;63.58;99266.72;8801420;33;20139;-73
2021/12/05 12:58:43;;;;;;;4.93;3.42;;;;;;;5.46;63.66;99278.59;8802231;33;21061;-72
2021/12/05 13:10:01;;;;;;;7.05;4.20;;;;;;;5.72;64.84;99273.03;8773564;33;20183;-72
2021/12/05 13:15:10;;;;;;;13.88;6.25;;;;;;;5.94;65.88;99280.19;8774136;33;20274;-71
2021/12/05 13:20:19;;;;;;;11.48;6.53;;;;;;;5.97;65.50;99290.63;8773794;33;20328;-73
2021/12/05 13:25:22;;;;;;;7.40;4.30;;;;;;;5.91;65.94;99299.94;8774153;33;20445;-73
2021/12/05 13:30:31;;;;;;;12.98;7.20;;;;;;;5.64;66.96;99294.94;8778596;33;20128;-73
2021/12/05 13:35:40;;;;;;;13.13;6.75;;;;;;;5.56;67.64;99299.19;8800817;33;20154;-72
2021/12/05 13:40:43;;;;;;;12.80;8.02;;;;;;;5.47;68.12;99306.91;8807603;33;20191;-72
2021/12/05 13:45:47;;;;;;;9.77;5.45;;;;;;;5.64;68.05;99304.78;8779978;33;20247;-72
2021/12/05 13:50:57;;;;;;;8.75;5.30;;;;;;;5.67;67.46;99309.84;8806624;33;20312;-71
2021/12/05 13:56:11;;;;;;;10.40;4.88;;;;;;;5.68;67.09;99323.06;8805196;33;20273;-71
2021/12/05 14:01:22;;;;;;;9.45;4.50;;;;;;;5.46;66.59;99325.69;8806087;33;20577;-71
2021/12/05 14:06:47;;;;;;;8.98;4.57;;;;;;;5.31;67.38;99327.69;8825196;33;20178;-72
2021/12/05 14:11:57;;;;;;;8.52;4.95;;;;;;;5.18;66.98;99341.06;8837399;33;20138;-72
2021/12/05 14:17:04;;;;;;;8.07;5.10;;;;;;;5.06;67.41;99347.34;8837700;33;20481;-72
2021/12/05 14:22:12;;;;;;;16.55;8.82;;;;;;;5.03;68.37;99356.41;8837595;33;20747;-72
2021/12/05 14:27:19;;;;;;;27.65;13.60;;;;;;;4.94;68.97;99372.19;8836485;33;20235;-72
2021/12/05 14:32:26;;;;;;;14.60;6.72;;;;;;;4.84;69.49;99370.19;8833932;33;20452;-72
2021/12/05 14:37:33;;;;;;;7.75;5.15;;;;;;;4.79;69.88;99388.28;8833430;33;20188;-72
2021/12/05 14:42:40;;;;;;;13.63;7.50;;;;;;;4.72;70.38;99403.00;8834985;33;20131;-72
2021/12/05 14:47:46;;;;;;;9.68;5.63;;;;;;;4.65;70.64;99412.38;8836378;33;20172;-72
2021/12/05 14:52:54;;;;;;;7.82;5.30;;;;;;;4.54;70.75;99418.47;8835708;33;20251;-72
2021/12/05 14:58:02;;;;;;;9.02;5.63;;;;;;;4.50;70.93;99434.75;8837090;33;20236;-72
2021/12/05 15:03:08;;;;;;;13.10;6.10;;;;;;;4.45;71.25;99437.75;8836200;33;20671;-71
2021/12/05 15:08:16;;;;;;;10.45;6.63;;;;;;;4.42;71.31;99443.28;8846778;33;20207;-72
2021/12/05 15:13:20;;;;;;;10.10;5.95;;;;;;;4.36;71.53;99452.56;8861910;33;20225;-72
2021/12/05 15:18:29;;;;;;;11.13;6.88;;;;;;;4.28;71.74;99454.00;8825555;33;20673;-72
2021/12/05 15:23:40;;;;;;;15.23;7.88;;;;;;;4.23;71.75;99470.31;8836826;33;20444;-72
2021/12/05 15:28:43;;;;;;;17.45;9.52;;;;;;;4.18;71.46;99470.63;8836544;33;20277;-72
2021/12/05 15:33:47;;;;;;;15.05;10.15;;;;;;;4.18;71.40;99475.09;8835317;33;20170;-72
2021/12/05 15:38:51;;;;;;;8.50;5.55;;;;;;;4.19;71.01;99482.09;8835060;33;20241;-71
2021/12/05 15:43:54;;;;;;;15.93;7.70;;;;;;;4.20;70.71;99488.25;8834446;33;20216;-72
2021/12/05 15:48:58;;;;;;;12.85;8.07;;;;;;;4.16;71.34;99504.41;8835122;33;20146;-71
2021/12/05 15:54:03;;;;;;;10.05;6.72;;;;;;;4.09;71.91;99507.63;8834334;33;20179;-71
2021/12/05 15:59:17;;;;;;;14.73;8.23;;;;;;;4.05;72.07;99509.63;8834737;33;21409;-71
2021/12/05 16:04:23;;;;;;;17.83;10.20;;;;;;;4.00;72.51;99513.53;8833437;33;20423;-73
2021/12/05 16:09:28;;;;;;;21.17;12.43;;;;;;;3.96;72.89;99523.53;8833997;33;20178;-73
2021/12/05 16:14:35;;;;;;;63.60;27.90;;;;;;;3.94;73.09;99528.09;8834016;33;20234;-72
2021/12/05 16:19:38;;;;;;;20.25;12.05;;;;;;;3.90;73.21;99546.06;8833888;33;20212;-70
2021/12/05 16:24:57;;;;;;;20.83;12.57;;;;;;;3.88;73.39;99541.78;8809212;33;20276;-71
2021/12/05 16:30:02;;;;;;;24.85;14.50;;;;;;;3.88;73.52;99555.09;8834214;33;20241;-72
2021/12/05 16:35:06;;;;;;;31.23;17.83;;;;;;;3.90;73.38;99556.69;8834772;33;20186;-73
2021/12/05 16:40:11;;;;;;;30.90;14.30;;;;;;;3.89;73.42;99559.44;8834587;33;20142;-72
2021/12/05 16:45:17;;;;;;;27.40;13.80;;;;;;;3.86;73.08;99562.28;8834055;33;20236;-72
2021/12/05 16:50:22;;;;;;;21.40;11.27;;;;;;;3.88;73.14;99563.06;8833678;33;20178;-72
2021/12/05 16:55:29;;;;;;;21.73;11.68;;;;;;;3.91;73.03;99574.31;8833806;33;20235;-72
2021/12/05 17:00:37;;;;;;;15.80;10.27;;;;;;;3.92;73.07;99583.13;8833485;33;22141;-72
2021/12/05 17:05:44;;;;;;;21.00;11.77;;;;;;;3.89;73.57;99591.31;8839787;33;20197;-73
2021/12/05 17:10:51;;;;;;;14.85;8.45;;;;;;;3.84;74.12;99596.94;8813358;33;20745;-72
2021/12/05 17:16:00;;;;;;;14.20;8.88;;;;;;;3.79;74.34;99608.84;8839080;33;20651;-72
2021/12/05 17:21:08;;;;;;;20.85;12.50;;;;;;;3.72;74.77;99616.31;8838418;33;20689;-73
2021/12/05 17:26:21;;;;;;;15.95;10.52;;;;;;;3.71;74.96;99617.28;8837981;33;20154;-72
2021/12/05 17:31:30;;;;;;;25.40;14.50;;;;;;;3.75;74.74;99625.91;8838057;33;20716;-73
2021/12/05 17:36:36;;;;;;;19.75;12.77;;;;;;;3.80;74.38;99631.78;8838069;33;20233;-73
2021/12/05 17:41:43;;;;;;;14.27;10.20;;;;;;;3.78;74.17;99636.31;8837783;33;20331;-73
2021/12/05 17:46:49;;;;;;;13.40;8.48;;;;;;;3.82;74.28;99648.47;8837779;33;20508;-72
2021/12/05 17:51:54;;;;;;;13.27;9.23;;;;;;;3.81;73.97;99646.75;8836726;33;20181;-73
2021/12/05 17:57:06;;;;;;;14.88;9.30;;;;;;;3.81;74.04;99654.72;8837867;33;20158;-72
2021/12/05 18:07:29;;;;;;;28.40;15.73;;;;;;;3.70;75.03;99660.72;8838391;33;20146;-72
2021/12/05 18:12:36;;;;;;;25.65;14.50;;;;;;;3.76;74.53;99670.09;8837248;33;20277;-71
2021/12/05 18:17:40;;;;;;;18.23;11.60;;;;;;;3.74;74.56;99675.53;8837253;33;20226;-71
2021/12/05 18:22:43;;;;;;;13.63;8.27;;;;;;;3.76;74.62;99678.94;8813242;33;20519;-72
2021/12/05 18:27:48;;;;;;;14.05;10.70;;;;;;;3.74;74.68;99680.84;8837447;33;20320;-72
2021/12/05 18:32:53;;;;;;;24.67;12.52;;;;;;;3.59;75.25;99685.31;8837266;33;20548;-71
2021/12/05 18:37:57;;;;;;;25.35;15.40;;;;;;;3.54;75.62;99695.41;8836876;33;20178;-72
2021/12/05 18:43:02;;;;;;;29.05;16.05;;;;;;;3.47;75.59;99700.22;8809319;33;20182;-71
2021/12/05 18:48:06;;;;;;;26.50;15.48;;;;;;;3.40;75.94;99706.88;8835231;33;20196;-72
2021/12/05 18:53:12;;;;;;;58.67;30.80;;;;;;;3.39;76.08;99720.22;8810806;33;20563;-72
2021/12/05 18:58:24;;;;;;;31.27;19.77;;;;;;;3.38;76.16;99724.69;8836681;33;20224;-72
2021/12/05 19:14:28;;;;;;;30.00;16.98;;;;;;;3.35;76.05;99739.97;8734876;32;21049;-73
2021/12/05 19:19:33;;;;;;;24.17;14.07;;;;;;;3.31;75.95;99746.41;8712900;33;20166;-72
2021/12/05 19:24:36;;;;;;;33.83;18.58;;;;;;;3.28;76.20;99748.28;8740926;33;20187;-72
2021/12/05 19:29:41;;;;;;;23.50;14.45;;;;;;;3.32;76.00;99753.41;8740556;33;20680;-72
2021/12/05 19:34:44;;;;;;;41.25;21.77;;;;;;;3.35;76.17;99758.56;8740681;33;20179;-72
2021/12/05 19:39:48;;;;;;;32.42;16.85;;;;;;;3.37;76.14;99762.78;8740387;33;20693;-72
2021/12/05 19:44:55;;;;;;;28.90;16.70;;;;;;;3.35;75.89;99777.97;8739548;33;20252;-72
2021/12/05 19:49:58;;;;;;;28.23;16.02;;;;;;;3.34;76.02;99775.41;8740084;33;20174;-72
2021/12/05 19:55:02;;;;;;;23.60;11.85;;;;;;;3.34;76.00;99781.56;8740406;33;20178;-72
2021/12/05 20:00:12;;;;;;;18.05;12.45;;;;;;;3.35;76.02;99793.06;8737567;33;21502;-73
2021/12/05 20:05:18;;;;;;;27.15;16.50;;;;;;;3.35;76.28;99788.59;8740321;33;20186;-72
2021/12/05 20:10:25;;;;;;;24.05;14.18;;;;;;;3.34;76.31;99791.34;8738149;33;20183;-72
2021/12/05 20:15:32;;;;;;;27.13;16.02;;;;;;;3.30;76.45;99801.31;8739705;33;20171;-72
2021/12/05 20:20:36;;;;;;;25.88;16.08;;;;;;;3.29;76.80;99799.56;8736700;33;20198;-72
2021/12/05 20:25:40;;;;;;;26.85;16.35;;;;;;;3.39;76.86;99799.88;8718505;33;20183;-72
2021/12/05 20:30:44;;;;;;;35.83;19.95;;;;;;;3.43;76.58;99806.72;8714781;33;20144;-72
2021/12/05 20:35:47;;;;;;;31.65;18.27;;;;;;;3.39;76.85;99815.81;8718632;33;20409;-71
2021/12/05 20:40:50;;;;;;;27.23;18.75;;;;;;;3.31;76.90;99828.69;8718308;33;20893;-72
2021/12/05 20:45:55;;;;;;;30.92;18.15;;;;;;;3.27;77.38;99841.31;8718966;33;20160;-72
2021/12/05 20:50:59;;;;;;;31.23;17.73;;;;;;;3.26;77.32;99850.19;8718351;33;20168;-71
2021/12/05 20:56:02;;;;;;;27.50;16.52;;;;;;;3.17;77.54;99856.91;8716403;33;20202;-71
2021/12/05 21:01:07;;;;;;;19.60;12.57;;;;;;;3.11;77.59;99861.72;8717873;33;20681;-71
2021/12/05 21:06:11;;;;;;;20.10;11.52;;;;;;;3.06;77.73;99878.75;8717946;33;20247;-70
2021/12/05 21:11:19;;;;;;;19.45;11.95;;;;;;;3.04;78.02;99885.09;8733898;33;20292;-71
2021/12/05 21:16:24;;;;;;;18.10;11.65;;;;;;;3.05;78.06;99889.47;8737018;33;20229;-72
2021/12/05 21:21:27;;;;;;;18.67;11.15;;;;;;;3.11;78.05;99894.44;8733425;33;20192;-73
2021/12/05 21:26:31;;;;;;;21.63;12.50;;;;;;;3.13;77.68;99897.00;8719745;33;20891;-72
2021/12/05 21:31:35;;;;;;;24.55;15.35;;;;;;;3.16;77.51;99899.47;8717822;33;20183;-72
2021/12/05 21:36:40;;;;;;;24.88;13.30;;;;;;;3.17;77.33;99912.63;8717282;33;20187;-72
2021/12/05 21:41:43;;;;;;;20.77;12.75;;;;;;;3.17;77.44;99922.41;8667851;33;20212;-72
2021/12/05 21:46:48;;;;;;;20.40;11.93;;;;;;;3.06;77.40;99926.53;8718490;33;20264;-72
2021/12/05 21:51:51;;;;;;;20.73;11.85;;;;;;;3.03;77.65;99926.69;8717267;33;21343;-72
2021/12/05 21:56:54;;;;;;;19.73;11.75;;;;;;;3.03;77.51;99928.50;8717654;33;20290;-72
2021/12/05 22:02:00;;;;;;;18.30;11.63;;;;;;;3.01;77.48;99939.19;8716893;33;20189;-72
2021/12/05 22:07:05;;;;;;;24.02;13.40;;;;;;;3.02;77.55;99938.28;8717885;33;20684;-72
2021/12/05 22:12:09;;;;;;;20.17;13.43;;;;;;;3.00;77.48;99932.19;8718573;33;20183;-72
2021/12/05 22:17:13;;;;;;;18.55;12.48;;;;;;;3.00;77.45;99942.81;8716244;33;20330;-72
2021/12/05 22:22:17;;;;;;;23.73;13.85;;;;;;;3.00;77.03;99941.94;8716413;33;20156;-72
2021/12/05 22:27:21;;;;;;;21.95;14.27;;;;;;;2.97;76.88;99948.28;8716870;33;20180;-72
2021/12/05 22:32:25;;;;;;;18.98;13.32;;;;;;;2.97;77.05;99952.75;8716495;33;20191;-72
2021/12/05 22:37:29;;;;;;;19.33;13.75;;;;;;;2.94;77.16;99961.72;8709659;33;20214;-72
2021/12/05 22:42:32;;;;;;;22.55;13.45;;;;;;;2.90;77.30;99965.47;8716843;33;20526;-72
2021/12/05 22:47:38;;;;;;;22.98;13.43;;;;;;;2.89;77.40;99973.53;8716382;33;20984;-73
2021/12/05 22:52:41;;;;;;;19.63;12.43;;;;;;;2.84;77.47;99969.34;8715220;33;20171;-72
2021/12/05 22:57:44;;;;;;;18.85;12.50;;;;;;;2.80;77.53;99994.34;8716152;33;20278;-72
2021/12/05 23:02:49;;;;;;;20.80;14.23;;;;;;;2.79;77.64;100000.56;8715286;33;20186;-72
2021/12/05 23:07:52;;;;;;;19.83;12.43;;;;;;;2.80;77.72;99999.63;8714442;33;20191;-72
2021/12/05 23:12:56;;;;;;;16.55;12.30;;;;;;;2.79;77.71;100002.34;8714216;33;20306;-72
2021/12/05 23:18:01;;;;;;;18.38;11.68;;;;;;;2.76;77.85;100005.19;8715180;33;20184;-72
2021/12/05 23:23:04;;;;;;;20.00;13.10;;;;;;;2.75;78.00;99998.19;8714912;33;20240;-71
2021/12/05 23:28:07;;;;;;;19.92;12.38;;;;;;;2.75;78.23;100000.84;8715253;33;20184;-72
2021/12/05 23:33:18;;;;;;;17.77;11.93;;;;;;;2.70;78.17;100005.53;8715105;33;20346;-73
2021/12/05 23:38:22;;;;;;;19.27;11.50;;;;;;;2.63;78.36;100010.28;8715328;33;20539;-71
2021/12/05 23:43:26;;;;;;;17.70;12.27;;;;;;;2.57;78.29;100005.31;8714405;33;20229;-72
2021/12/05 23:48:31;;;;;;;18.80;12.18;;;;;;;2.53;78.81;100014.38;8714299;33;20210;-72
2021/12/05 23:53:35;;;;;;;22.15;12.68;;;;;;;2.51;78.95;100021.53;8714124;33;20160;-72
2021/12/05 23:58:40;;;;;;;25.52;13.63;;;;;;;2.50;78.91;100025.13;8716713;33;20196;-72
